createdAt,value
2019-05-19T00:00:13.997Z,17.44
2019-05-19T00:01:13.867Z,17.42
2019-05-19T00:02:13.793Z,17.39
2019-05-19T00:03:13.718Z,17.34
2019-05-19T00:04:13.632Z,17.30
2019-05-19T00:05:13.556Z,17.29
2019-05-19T00:06:13.477Z,17.29
2019-05-19T00:07:13.400Z,17.39
2019-05-19T00:08:13.351Z,17.33
2019-05-19T00:09:16.108Z,17.29
2019-05-19T00:10:13.172Z,17.30
2019-05-19T00:11:13.089Z,17.33
2019-05-19T00:12:13.014Z,17.31
2019-05-19T00:13:12.936Z,17.26
2019-05-19T00:14:12.858Z,17.26
2019-05-19T00:15:12.782Z,17.24
2019-05-19T00:16:12.699Z,17.16
2019-05-19T00:17:12.627Z,17.19
2019-05-19T00:18:12.553Z,17.09
2019-05-19T00:19:25.728Z,17.08
2019-05-19T00:20:12.395Z,16.96
2019-05-19T00:21:12.317Z,16.91
2019-05-19T00:22:12.238Z,16.87
2019-05-19T00:23:12.160Z,16.83
2019-05-19T00:24:12.084Z,16.79
2019-05-19T00:25:12.004Z,16.76
2019-05-19T00:26:11.929Z,16.75
2019-05-19T00:27:11.851Z,16.61
2019-05-19T00:28:11.772Z,16.64
2019-05-19T00:29:11.699Z,16.61
2019-05-19T00:30:11.614Z,16.64
2019-05-19T00:31:11.538Z,16.66
2019-05-19T00:32:11.463Z,16.76
2019-05-19T00:33:11.382Z,16.74
2019-05-19T00:34:11.304Z,16.72
2019-05-19T00:35:11.227Z,16.60
2019-05-19T00:36:11.149Z,16.66
2019-05-19T00:37:11.070Z,16.68
2019-05-19T00:38:10.992Z,16.68
2019-05-19T00:39:10.914Z,16.72
2019-05-19T00:40:10.834Z,16.74
2019-05-19T00:41:10.760Z,16.72
2019-05-19T00:42:10.683Z,16.72
2019-05-19T00:43:10.601Z,16.78
2019-05-19T00:44:10.525Z,16.69
2019-05-19T00:45:10.445Z,16.66
2019-05-19T00:46:10.368Z,16.65
2019-05-19T00:47:10.290Z,16.68
2019-05-19T00:48:10.215Z,16.64
2019-05-19T00:49:10.142Z,16.58
2019-05-19T00:50:10.057Z,16.65
2019-05-19T00:51:09.981Z,16.56
2019-05-19T00:52:09.898Z,16.56
2019-05-19T00:53:09.825Z,16.54
2019-05-19T00:54:09.752Z,16.54
2019-05-19T00:55:09.669Z,16.58
2019-05-19T00:56:09.589Z,16.56
2019-05-19T00:57:09.511Z,16.57
2019-05-19T00:58:09.431Z,16.61
2019-05-19T00:59:09.355Z,16.51
2019-05-19T01:00:09.270Z,16.49
2019-05-19T01:01:09.197Z,16.58
2019-05-19T01:02:09.116Z,16.57
2019-05-19T01:03:09.043Z,16.57
2019-05-19T01:04:08.958Z,16.51
2019-05-19T01:05:08.892Z,16.53
2019-05-19T01:06:08.874Z,16.53
2019-05-19T01:07:08.733Z,16.57
2019-05-19T01:08:08.654Z,16.58
2019-05-19T01:09:08.571Z,16.49
2019-05-19T01:10:08.495Z,16.47
2019-05-19T01:11:08.421Z,16.38
2019-05-19T01:12:08.366Z,16.31
2019-05-19T01:13:08.265Z,16.21
2019-05-19T01:14:08.212Z,16.29
2019-05-19T01:15:08.103Z,16.26
2019-05-19T01:16:08.037Z,16.24
2019-05-19T01:17:07.945Z,16.24
2019-05-19T01:18:07.871Z,16.28
2019-05-19T01:19:07.790Z,16.23
2019-05-19T01:20:07.713Z,16.28
2019-05-19T01:21:07.636Z,16.31
2019-05-19T01:22:07.558Z,16.26
2019-05-19T01:23:07.478Z,16.23
2019-05-19T01:24:07.402Z,16.23
2019-05-19T01:25:07.341Z,16.24
2019-05-19T01:26:07.245Z,16.28
2019-05-19T01:27:07.167Z,16.24
2019-05-19T01:28:07.089Z,16.16
2019-05-19T01:29:07.010Z,16.21
2019-05-19T01:30:06.933Z,16.29
2019-05-19T01:31:06.853Z,16.20
2019-05-19T01:32:06.774Z,16.26
2019-05-19T01:33:06.698Z,16.17
2019-05-19T01:34:06.620Z,16.21
2019-05-19T01:35:06.541Z,16.20
2019-05-19T01:36:06.462Z,16.15
2019-05-19T01:37:06.383Z,16.09
2019-05-19T01:38:06.306Z,16.10
2019-05-19T01:39:06.227Z,16.04
2019-05-19T01:40:06.148Z,16.08
2019-05-19T01:41:06.072Z,16.09
2019-05-19T01:42:05.990Z,16.04
2019-05-19T01:43:05.913Z,15.90
2019-05-19T01:44:05.844Z,15.92
2019-05-19T01:45:05.757Z,15.90
2019-05-19T01:46:05.679Z,16.00
2019-05-19T01:47:05.599Z,15.98
2019-05-19T01:48:05.523Z,15.98
2019-05-19T01:49:05.444Z,15.98
2019-05-19T01:50:17.548Z,15.97
2019-05-19T01:51:05.287Z,15.92
2019-05-19T01:52:05.210Z,15.88
2019-05-19T01:53:05.131Z,16.00
2019-05-19T01:54:05.055Z,15.97
2019-05-19T01:55:04.974Z,15.91
2019-05-19T01:56:04.895Z,15.97
2019-05-19T01:57:04.815Z,16.02
2019-05-19T01:58:04.745Z,15.98
2019-05-19T01:59:04.659Z,15.94
2019-05-19T02:00:04.583Z,15.97
2019-05-19T02:01:04.503Z,15.95
2019-05-19T02:02:04.425Z,15.95
2019-05-19T02:03:04.353Z,15.86
2019-05-19T02:04:04.265Z,15.90
2019-05-19T02:05:04.183Z,15.92
2019-05-19T02:06:04.117Z,15.86
2019-05-19T02:07:04.028Z,15.86
2019-05-19T02:08:03.951Z,15.90
2019-05-19T02:09:03.875Z,15.88
2019-05-19T02:10:03.799Z,15.77
2019-05-19T02:11:03.722Z,15.82
2019-05-19T02:12:03.639Z,15.77
2019-05-19T02:13:05.257Z,15.76
2019-05-19T02:14:03.482Z,15.82
2019-05-19T02:15:03.401Z,15.64
2019-05-19T02:16:03.323Z,15.70
2019-05-19T02:17:03.245Z,15.77
2019-05-19T02:18:03.167Z,15.77
2019-05-19T02:19:03.086Z,15.83
2019-05-19T02:20:03.011Z,15.73
2019-05-19T02:21:02.927Z,15.70
2019-05-19T02:22:02.852Z,15.77
2019-05-19T02:23:02.781Z,15.70
2019-05-19T02:24:02.720Z,15.68
2019-05-19T02:25:02.613Z,15.76
2019-05-19T02:26:02.540Z,15.62
2019-05-19T02:27:02.456Z,15.65
2019-05-19T02:28:02.381Z,15.67
2019-05-19T02:29:02.301Z,15.59
2019-05-19T02:30:02.638Z,15.61
2019-05-19T02:31:02.148Z,15.52
2019-05-19T02:32:02.066Z,15.61
2019-05-19T02:33:01.993Z,15.62
2019-05-19T02:34:01.907Z,15.59
2019-05-19T02:35:01.829Z,15.47
2019-05-19T02:36:01.749Z,15.52
2019-05-19T02:37:01.674Z,15.49
2019-05-19T02:38:01.591Z,15.52
2019-05-19T02:39:01.514Z,15.44
2019-05-19T02:40:01.458Z,15.49
2019-05-19T02:41:01.354Z,15.42
2019-05-19T02:42:01.278Z,15.24
2019-05-19T02:43:01.199Z,15.33
2019-05-19T02:44:01.117Z,15.27
2019-05-19T02:45:01.038Z,15.27
2019-05-19T02:46:00.969Z,15.25
2019-05-19T02:47:00.874Z,15.24
2019-05-19T02:48:00.805Z,15.17
2019-05-19T02:49:00.725Z,15.27
2019-05-19T02:50:00.652Z,15.22
2019-05-19T02:51:00.574Z,15.22
2019-05-19T02:52:00.486Z,15.24
2019-05-19T02:53:00.407Z,15.18
2019-05-19T02:54:00.327Z,15.19
2019-05-19T02:55:00.265Z,15.19
2019-05-19T02:56:00.168Z,15.06
2019-05-19T02:57:00.094Z,15.14
2019-05-19T02:58:00.013Z,15.22
2019-05-19T02:58:59.932Z,15.14
2019-05-19T03:00:07.526Z,15.11
2019-05-19T03:02:05.160Z,15.11
2019-05-19T03:03:05.058Z,15.11
2019-05-19T03:05:10.382Z,15.14
2019-05-19T03:06:10.287Z,15.24
2019-05-19T03:08:15.633Z,15.11
2019-05-19T03:09:15.499Z,15.24
2019-05-19T03:11:08.764Z,15.19
2019-05-19T03:12:08.669Z,15.24
2019-05-19T03:13:08.591Z,15.25
2019-05-19T03:14:08.505Z,15.21
2019-05-19T03:15:08.424Z,15.17
2019-05-19T03:16:08.346Z,15.14
2019-05-19T03:17:08.270Z,15.15
2019-05-19T03:18:08.179Z,15.11
2019-05-19T03:19:08.118Z,15.11
2019-05-19T03:20:08.046Z,15.17
2019-05-19T03:21:11.650Z,15.11
2019-05-19T03:22:07.862Z,15.11
2019-05-19T03:23:07.783Z,15.14
2019-05-19T03:24:07.710Z,15.09
2019-05-19T03:25:07.640Z,15.03
2019-05-19T03:26:07.542Z,15.07
2019-05-19T03:27:07.464Z,15.10
2019-05-19T03:28:07.385Z,15.18
2019-05-19T03:29:07.304Z,15.11
2019-05-19T03:30:07.225Z,15.09
2019-05-19T03:31:07.167Z,15.10
2019-05-19T03:32:11.770Z,15.10
2019-05-19T03:33:07.011Z,15.10
2019-05-19T03:34:06.925Z,15.09
2019-05-19T03:35:06.830Z,15.07
2019-05-19T03:36:06.755Z,15.15
2019-05-19T03:37:06.670Z,15.09
2019-05-19T03:38:06.598Z,15.07
2019-05-19T03:39:06.510Z,15.10
2019-05-19T03:40:06.441Z,15.09
2019-05-19T03:41:06.355Z,15.14
2019-05-19T03:42:10.227Z,15.06
2019-05-19T03:43:06.201Z,15.00
2019-05-19T03:44:06.115Z,14.99
2019-05-19T03:45:06.044Z,14.99
2019-05-19T03:46:05.965Z,14.94
2019-05-19T03:47:05.883Z,15.03
2019-05-19T03:48:05.807Z,14.92
2019-05-19T03:49:05.725Z,14.99
2019-05-19T03:50:05.642Z,15.00
2019-05-19T03:51:05.566Z,15.03
2019-05-19T03:52:05.485Z,15.03
2019-05-19T03:53:05.405Z,14.96
2019-05-19T03:54:05.336Z,14.94
2019-05-19T03:55:05.243Z,15.00
2019-05-19T03:56:05.168Z,15.04
2019-05-19T03:57:05.102Z,15.14
2019-05-19T03:58:05.009Z,15.14
2019-05-19T03:59:04.933Z,15.09
2019-05-19T04:00:04.860Z,15.07
2019-05-19T04:01:04.775Z,15.14
2019-05-19T04:02:04.691Z,15.00
2019-05-19T04:03:04.611Z,15.10
2019-05-19T04:04:04.534Z,15.09
2019-05-19T04:05:04.455Z,15.02
2019-05-19T04:06:04.376Z,15.07
2019-05-19T04:07:04.294Z,15.04
2019-05-19T04:08:04.222Z,15.02
2019-05-19T04:09:04.135Z,15.04
2019-05-19T04:10:04.081Z,15.06
2019-05-19T04:11:03.978Z,15.02
2019-05-19T04:12:03.902Z,15.06
2019-05-19T04:13:03.829Z,14.99
2019-05-19T04:14:03.744Z,14.89
2019-05-19T04:15:03.660Z,15.04
2019-05-19T04:16:03.577Z,14.91
2019-05-19T04:17:03.507Z,14.97
2019-05-19T04:18:03.425Z,14.91
2019-05-19T04:19:03.346Z,14.88
2019-05-19T04:20:03.270Z,14.88
2019-05-19T04:21:03.202Z,14.72
2019-05-19T04:22:03.105Z,14.86
2019-05-19T04:23:03.030Z,14.84
2019-05-19T04:24:02.974Z,14.79
2019-05-19T04:25:02.866Z,14.79
2019-05-19T04:26:02.814Z,14.77
2019-05-19T04:27:02.713Z,14.65
2019-05-19T04:28:02.677Z,14.77
2019-05-19T04:29:02.558Z,14.81
2019-05-19T04:30:02.479Z,14.77
2019-05-19T04:31:02.406Z,14.86
2019-05-19T04:32:02.320Z,14.85
2019-05-19T04:33:02.238Z,14.78
2019-05-19T04:34:02.156Z,14.91
2019-05-19T04:35:02.075Z,14.85
2019-05-19T04:36:01.996Z,14.84
2019-05-19T04:37:01.917Z,15.06
2019-05-19T04:38:01.838Z,14.96
2019-05-19T04:39:01.760Z,14.89
2019-05-19T04:40:01.684Z,14.94
2019-05-19T04:41:01.606Z,15.02
2019-05-19T04:42:01.519Z,15.00
2019-05-19T04:43:01.454Z,14.99
2019-05-19T04:44:01.360Z,15.11
2019-05-19T04:45:01.282Z,15.04
2019-05-19T04:46:01.204Z,15.07
2019-05-19T04:47:01.130Z,15.15
2019-05-19T04:48:01.050Z,15.11
2019-05-19T04:49:00.977Z,15.17
2019-05-19T04:50:00.889Z,15.19
2019-05-19T04:51:00.805Z,15.25
2019-05-19T04:52:06.735Z,15.17
2019-05-19T04:53:00.679Z,15.19
2019-05-19T04:54:00.588Z,15.09
2019-05-19T04:55:00.489Z,15.15
2019-05-19T04:56:00.407Z,15.17
2019-05-19T04:57:00.341Z,15.15
2019-05-19T04:58:00.251Z,15.19
2019-05-19T04:59:00.168Z,15.15
2019-05-19T05:00:00.100Z,15.17
2019-05-19T05:01:00.010Z,15.14
2019-05-19T05:01:59.935Z,15.09
2019-05-19T05:02:59.874Z,15.24
2019-05-19T05:03:59.780Z,15.07
2019-05-19T05:04:59.742Z,15.19
2019-05-19T05:05:59.618Z,15.25
2019-05-19T05:06:59.536Z,15.21
2019-05-19T05:07:59.461Z,15.22
2019-05-19T05:08:59.387Z,15.28
2019-05-19T05:09:59.303Z,15.33
2019-05-19T05:10:59.222Z,15.39
2019-05-19T05:11:59.145Z,15.39
2019-05-19T05:12:59.064Z,15.40
2019-05-19T05:13:59.001Z,15.44
2019-05-19T05:14:58.906Z,15.47
2019-05-19T05:15:58.828Z,15.52
2019-05-19T05:16:58.749Z,15.52
2019-05-19T05:17:58.671Z,15.57
2019-05-19T05:18:58.591Z,15.61
2019-05-19T05:19:58.507Z,15.62
2019-05-19T05:20:58.432Z,15.67
2019-05-19T05:21:58.351Z,15.65
2019-05-19T05:22:58.275Z,15.61
2019-05-19T05:23:58.198Z,15.68
2019-05-19T05:24:58.117Z,15.67
2019-05-19T05:25:58.039Z,15.61
2019-05-19T05:26:57.962Z,15.68
2019-05-19T05:27:57.887Z,15.72
2019-05-19T05:28:57.804Z,15.68
2019-05-19T05:29:57.735Z,15.72
2019-05-19T05:30:57.645Z,15.79
2019-05-19T05:31:57.570Z,15.75
2019-05-19T05:32:57.491Z,15.79
2019-05-19T05:33:57.550Z,15.67
2019-05-19T05:34:57.331Z,15.72
2019-05-19T05:35:57.256Z,15.77
2019-05-19T05:36:57.176Z,15.80
2019-05-19T05:37:57.094Z,15.86
2019-05-19T05:38:57.027Z,15.77
2019-05-19T05:39:56.945Z,15.88
2019-05-19T05:40:56.863Z,15.92
2019-05-19T05:41:56.786Z,15.95
2019-05-19T05:42:56.744Z,15.97
2019-05-19T05:43:56.629Z,16.04
2019-05-19T05:44:56.548Z,16.09
2019-05-19T05:45:56.474Z,16.10
2019-05-19T05:46:56.394Z,16.09
2019-05-19T05:47:56.316Z,16.16
2019-05-19T05:48:56.239Z,16.17
2019-05-19T05:49:56.160Z,16.20
2019-05-19T05:50:56.082Z,16.20
2019-05-19T05:51:56.000Z,16.24
2019-05-19T05:52:55.927Z,16.28
2019-05-19T05:53:55.848Z,16.31
2019-05-19T05:54:55.769Z,16.33
2019-05-19T05:55:55.691Z,16.38
2019-05-19T05:56:55.619Z,16.38
2019-05-19T05:57:55.539Z,16.46
2019-05-19T05:58:55.458Z,16.47
2019-05-19T05:59:55.431Z,16.53
2019-05-19T06:00:55.304Z,16.46
2019-05-19T06:01:55.227Z,16.53
2019-05-19T06:02:55.148Z,16.54
2019-05-19T06:03:55.069Z,16.56
2019-05-19T06:04:54.987Z,16.56
2019-05-19T06:05:54.914Z,16.65
2019-05-19T06:06:54.834Z,16.57
2019-05-19T06:07:54.759Z,16.61
2019-05-19T06:08:54.684Z,16.65
2019-05-19T06:09:54.605Z,16.72
2019-05-19T06:10:54.529Z,16.72
2019-05-19T06:11:54.443Z,16.76
2019-05-19T06:12:54.378Z,16.74
2019-05-19T06:13:54.295Z,16.74
2019-05-19T06:14:54.218Z,16.76
2019-05-19T06:15:54.139Z,16.84
2019-05-19T06:16:54.062Z,16.84
2019-05-19T06:17:54.020Z,16.83
2019-05-19T06:18:56.683Z,16.84
2019-05-19T06:19:53.991Z,16.90
2019-05-19T06:20:53.759Z,16.87
2019-05-19T06:21:53.701Z,16.90
2019-05-19T06:22:57.013Z,16.94
2019-05-19T06:23:53.520Z,16.93
2019-05-19T06:24:53.443Z,16.94
2019-05-19T06:25:53.370Z,16.84
2019-05-19T06:26:53.290Z,16.91
2019-05-19T06:27:53.217Z,16.94
2019-05-19T06:28:53.134Z,16.90
2019-05-19T06:29:53.068Z,16.99
2019-05-19T06:30:52.984Z,17.02
2019-05-19T06:31:52.916Z,17.06
2019-05-19T06:32:52.823Z,17.04
2019-05-19T06:33:52.746Z,17.01
2019-05-19T06:34:52.693Z,16.99
2019-05-19T06:35:52.590Z,17.01
2019-05-19T06:36:55.189Z,17.01
2019-05-19T06:37:52.450Z,17.11
2019-05-19T06:38:52.361Z,17.15
2019-05-19T06:39:52.289Z,17.11
2019-05-19T06:40:52.210Z,17.09
2019-05-19T06:41:52.135Z,17.14
2019-05-19T06:42:52.056Z,17.05
2019-05-19T06:45:36.074Z,17.09
2019-05-19T06:46:35.976Z,17.11
2019-05-19T06:48:42.789Z,17.19
2019-05-19T06:49:42.874Z,17.14
2019-05-19T06:51:48.120Z,17.20
2019-05-19T06:52:48.034Z,17.16
2019-05-19T06:53:47.948Z,17.26
2019-05-19T06:54:47.892Z,17.19
2019-05-19T06:55:47.798Z,17.19
2019-05-19T06:56:47.858Z,17.22
2019-05-19T06:57:47.803Z,17.22
2019-05-19T06:58:47.808Z,17.23
2019-05-19T06:59:47.479Z,17.29
2019-05-19T07:00:47.410Z,17.26
2019-05-19T07:01:47.326Z,17.31
2019-05-19T07:02:47.252Z,17.20
2019-05-19T07:03:47.200Z,17.29
2019-05-19T07:04:47.100Z,17.34
2019-05-19T07:05:47.021Z,17.24
2019-05-19T07:06:46.966Z,17.34
2019-05-19T07:07:46.896Z,17.38
2019-05-19T07:08:46.791Z,17.30
2019-05-19T07:09:57.938Z,17.42
2019-05-19T07:10:46.666Z,17.38
2019-05-19T07:11:46.602Z,17.39
2019-05-19T07:12:46.541Z,17.41
2019-05-19T07:13:46.430Z,17.45
2019-05-19T07:14:47.302Z,17.39
2019-05-19T07:15:46.267Z,17.34
2019-05-19T07:16:46.191Z,17.51
2019-05-19T07:17:46.122Z,17.57
2019-05-19T07:18:46.166Z,17.49
2019-05-19T07:19:45.961Z,17.54
2019-05-19T07:20:45.910Z,17.59
2019-05-19T07:21:45.795Z,17.59
2019-05-19T07:22:45.722Z,17.67
2019-05-19T07:23:45.638Z,17.54
2019-05-19T07:24:45.675Z,17.59
2019-05-19T07:25:45.496Z,17.63
2019-05-19T07:26:45.408Z,17.56
2019-05-19T07:27:45.332Z,17.64
2019-05-19T07:28:45.257Z,17.67
2019-05-19T07:29:45.184Z,17.71
2019-05-19T07:30:45.105Z,17.60
2019-05-19T07:31:45.027Z,17.65
2019-05-19T07:32:44.952Z,17.67
2019-05-19T07:33:44.874Z,17.64
2019-05-19T07:34:44.796Z,17.68
2019-05-19T07:35:44.716Z,17.74
2019-05-19T07:36:44.642Z,17.76
2019-05-19T07:37:44.565Z,17.74
2019-05-19T07:38:44.485Z,17.78
2019-05-19T07:39:44.411Z,17.71
2019-05-19T07:40:44.354Z,17.74
2019-05-19T07:41:44.262Z,17.79
2019-05-19T07:42:44.195Z,17.76
2019-05-19T07:45:34.293Z,17.79
2019-05-19T07:46:34.129Z,17.83
2019-05-19T07:48:41.108Z,17.87
2019-05-19T07:49:40.848Z,17.90
2019-05-19T07:51:47.710Z,17.97
2019-05-19T07:52:47.616Z,17.92
2019-05-19T07:54:55.649Z,17.97
2019-05-19T07:55:55.334Z,18.00
2019-05-19T07:58:02.141Z,17.97
2019-05-19T07:59:02.103Z,17.97
2019-05-19T08:00:59.914Z,17.94
2019-05-19T08:01:59.899Z,18.00
2019-05-19T08:04:06.540Z,18.01
2019-05-19T08:05:06.540Z,18.01
2019-05-19T08:07:13.283Z,17.98
2019-05-19T08:08:13.247Z,18.07
2019-05-19T08:10:20.204Z,18.05
2019-05-19T08:11:19.917Z,18.05
2019-05-19T08:13:26.833Z,18.08
2019-05-19T08:14:26.643Z,18.07
2019-05-19T08:15:26.567Z,17.97
2019-05-19T08:16:26.500Z,18.04
2019-05-19T08:17:26.419Z,18.05
2019-05-19T08:18:26.364Z,18.05
2019-05-19T08:19:26.264Z,18.11
2019-05-19T08:20:26.185Z,18.05
2019-05-19T08:21:26.120Z,18.16
2019-05-19T08:22:26.040Z,18.18
2019-05-19T08:23:25.956Z,18.13
2019-05-19T08:24:25.875Z,18.25
2019-05-19T08:25:25.806Z,18.28
2019-05-19T08:26:25.727Z,18.23
2019-05-19T08:27:25.732Z,18.23
2019-05-19T08:28:25.572Z,18.34
2019-05-19T08:29:25.502Z,18.35
2019-05-19T08:30:25.422Z,18.26
2019-05-19T08:31:25.347Z,18.33
2019-05-19T08:32:25.285Z,18.34
2019-05-19T08:33:25.190Z,18.34
2019-05-19T08:34:25.115Z,18.41
2019-05-19T08:35:25.038Z,18.40
2019-05-19T08:36:24.980Z,18.29
2019-05-19T08:37:24.884Z,18.31
2019-05-19T08:38:24.816Z,18.31
2019-05-19T08:39:24.734Z,18.38
2019-05-19T08:40:24.657Z,18.40
2019-05-19T08:41:24.581Z,18.43
2019-05-19T08:42:24.520Z,18.33
2019-05-19T08:43:24.428Z,18.43
2019-05-19T08:44:24.354Z,18.35
2019-05-19T08:45:24.277Z,18.41
2019-05-19T08:46:24.204Z,18.40
2019-05-19T08:47:24.126Z,18.44
2019-05-19T08:48:24.047Z,18.49
2019-05-19T08:49:23.996Z,18.37
2019-05-19T08:50:23.896Z,18.52
2019-05-19T08:51:23.829Z,18.43
2019-05-19T08:52:23.743Z,18.52
2019-05-19T08:53:23.667Z,18.53
2019-05-19T08:54:23.591Z,18.55
2019-05-19T08:55:23.516Z,18.60
2019-05-19T08:56:23.438Z,18.60
2019-05-19T08:57:23.363Z,18.63
2019-05-19T08:58:23.298Z,18.60
2019-05-19T08:59:23.211Z,18.68
2019-05-19T09:01:55.169Z,18.73
2019-05-19T09:02:55.079Z,18.73
2019-05-19T09:04:59.511Z,18.81
2019-05-19T09:05:59.323Z,18.73
2019-05-19T09:06:59.248Z,18.68
2019-05-19T09:07:59.280Z,18.83
2019-05-19T09:08:59.225Z,18.83
2019-05-19T09:09:59.127Z,18.80
2019-05-19T09:10:59.054Z,18.84
2019-05-19T09:11:58.974Z,18.89
2019-05-19T09:12:58.898Z,18.75
2019-05-19T09:13:58.823Z,18.83
2019-05-19T09:14:58.747Z,18.78
2019-05-19T09:15:58.672Z,18.78
2019-05-19T09:16:58.598Z,18.81
2019-05-19T09:17:58.517Z,18.75
2019-05-19T09:18:58.448Z,18.80
2019-05-19T09:19:58.369Z,18.77
2019-05-19T09:20:58.292Z,18.81
2019-05-19T09:21:58.246Z,18.77
2019-05-19T09:22:58.142Z,18.80
2019-05-19T09:23:58.066Z,18.73
2019-05-19T09:24:57.991Z,18.83
2019-05-19T09:25:57.915Z,18.80
2019-05-19T09:26:57.840Z,18.88
2019-05-19T09:27:57.763Z,18.86
2019-05-19T09:28:57.687Z,18.93
2019-05-19T09:29:57.612Z,18.90
2019-05-19T09:30:57.537Z,18.95
2019-05-19T09:31:57.464Z,18.92
2019-05-19T09:32:57.385Z,18.89
2019-05-19T09:33:57.386Z,18.98
2019-05-19T09:34:57.233Z,19.00
2019-05-19T09:35:57.162Z,18.96
2019-05-19T09:36:57.085Z,19.00
2019-05-19T09:37:57.012Z,19.02
2019-05-19T09:38:56.934Z,19.07
2019-05-19T09:39:56.870Z,19.09
2019-05-19T09:40:56.786Z,19.12
2019-05-19T09:41:56.603Z,19.11
2019-05-19T09:42:56.642Z,19.11
2019-05-19T09:43:56.588Z,19.02
2019-05-19T09:44:56.482Z,19.02
2019-05-19T09:45:56.406Z,19.00
2019-05-19T09:46:56.326Z,19.02
2019-05-19T09:47:56.255Z,19.07
2019-05-19T09:48:56.190Z,19.09
2019-05-19T09:49:56.105Z,19.19
2019-05-19T09:50:56.141Z,19.21
2019-05-19T09:51:55.954Z,19.24
2019-05-19T09:52:55.877Z,19.31
2019-05-19T09:53:55.810Z,19.26
2019-05-19T09:54:55.732Z,19.27
2019-05-19T09:55:55.655Z,19.34
2019-05-19T09:56:55.580Z,19.27
2019-05-19T09:57:55.517Z,19.29
2019-05-19T09:58:55.428Z,19.26
2019-05-19T09:59:55.356Z,19.36
2019-05-19T10:00:55.177Z,19.30
2019-05-19T10:01:55.211Z,19.44
2019-05-19T10:02:55.132Z,19.44
2019-05-19T10:03:55.057Z,19.40
2019-05-19T10:04:54.985Z,19.41
2019-05-19T10:05:54.903Z,19.52
2019-05-19T10:06:54.835Z,19.54
2019-05-19T10:07:54.757Z,19.63
2019-05-19T10:08:54.681Z,19.63
2019-05-19T10:09:54.633Z,19.71
2019-05-19T10:10:54.530Z,19.70
2019-05-19T10:11:54.456Z,19.63
2019-05-19T10:12:54.382Z,19.79
2019-05-19T10:13:54.306Z,19.76
2019-05-19T10:14:54.125Z,19.85
2019-05-19T10:15:54.065Z,19.96
2019-05-19T10:16:54.078Z,20.02
2019-05-19T10:17:53.902Z,19.96
2019-05-19T10:18:53.834Z,19.92
2019-05-19T10:19:53.856Z,19.89
2019-05-19T10:20:53.690Z,19.81
2019-05-19T10:21:53.710Z,19.86
2019-05-19T10:22:53.634Z,19.92
2019-05-19T10:23:53.464Z,19.94
2019-05-19T10:25:04.478Z,19.94
2019-05-19T10:25:53.410Z,19.95
2019-05-19T10:26:53.231Z,19.91
2019-05-19T10:27:53.261Z,19.91
2019-05-19T10:28:53.189Z,19.94
2019-05-19T10:29:53.127Z,19.94
2019-05-19T10:30:52.942Z,19.96
2019-05-19T10:31:54.486Z,19.96
2019-05-19T10:32:52.900Z,20.00
2019-05-19T10:33:52.715Z,20.07
2019-05-19T10:34:52.746Z,20.11
2019-05-19T10:35:52.589Z,20.21
2019-05-19T10:36:52.491Z,20.22
2019-05-19T10:37:52.417Z,20.25
2019-05-19T10:38:52.448Z,20.25
2019-05-19T10:39:52.386Z,20.34
2019-05-19T10:40:52.299Z,20.34
2019-05-19T10:41:52.127Z,20.44
2019-05-19T10:42:52.055Z,20.51
2019-05-19T10:43:52.078Z,20.56
2019-05-19T10:44:52.010Z,20.65
2019-05-19T10:45:51.827Z,20.69
2019-05-19T10:46:51.860Z,20.67
2019-05-19T10:47:51.784Z,20.82
2019-05-19T10:48:51.615Z,20.77
2019-05-19T10:49:51.638Z,20.80
2019-05-19T10:50:51.562Z,20.87
2019-05-19T10:51:51.392Z,20.92
2019-05-19T10:52:51.417Z,20.99
2019-05-19T10:53:51.344Z,21.07
2019-05-19T10:54:51.268Z,21.06
2019-05-19T10:55:51.202Z,21.07
2019-05-19T10:56:51.123Z,21.14
2019-05-19T10:57:51.047Z,21.12
2019-05-19T10:58:50.979Z,21.14
2019-05-19T10:59:50.900Z,21.12
2019-05-19T11:00:50.827Z,21.00
2019-05-19T11:01:50.757Z,21.05
2019-05-19T11:02:50.684Z,21.12
2019-05-19T11:03:50.613Z,21.07
2019-05-19T11:04:50.532Z,21.12
2019-05-19T11:05:50.463Z,21.03
2019-05-19T11:06:50.393Z,21.09
2019-05-19T11:07:50.319Z,20.99
2019-05-19T11:08:50.245Z,20.95
2019-05-19T11:09:50.174Z,21.12
2019-05-19T11:10:50.100Z,21.15
2019-05-19T11:11:49.930Z,21.21
2019-05-19T11:12:49.959Z,21.30
2019-05-19T11:13:49.882Z,21.39
2019-05-19T11:14:49.711Z,21.42
2019-05-19T11:15:49.734Z,21.43
2019-05-19T11:16:49.663Z,21.54
2019-05-19T11:17:49.589Z,21.58
2019-05-19T11:18:49.518Z,21.52
2019-05-19T11:19:49.447Z,21.60
2019-05-19T11:20:49.270Z,21.50
2019-05-19T11:21:49.302Z,21.55
2019-05-19T11:22:49.133Z,21.52
2019-05-19T11:23:49.052Z,21.48
2019-05-19T11:24:48.980Z,21.51
2019-05-19T11:25:51.499Z,21.55
2019-05-19T11:26:48.938Z,21.52
2019-05-19T11:27:48.864Z,21.64
2019-05-19T11:28:48.792Z,21.66
2019-05-19T11:29:48.615Z,21.69
2019-05-19T11:30:48.653Z,21.73
2019-05-19T11:31:48.476Z,21.73
2019-05-19T11:32:48.397Z,21.75
2019-05-19T11:33:48.327Z,21.79
2019-05-19T11:34:48.257Z,21.79
2019-05-19T11:35:48.282Z,21.89
2019-05-19T11:36:48.212Z,21.82
2019-05-19T11:37:48.043Z,21.93
2019-05-19T11:38:48.068Z,21.92
2019-05-19T11:39:47.888Z,21.96
2019-05-19T11:40:47.927Z,21.98
2019-05-19T11:41:47.855Z,21.96
2019-05-19T11:42:47.783Z,21.96
2019-05-19T11:43:47.604Z,22.00
2019-05-19T11:44:47.635Z,21.95
2019-05-19T11:45:47.460Z,21.95
2019-05-19T11:46:47.521Z,21.91
2019-05-19T11:47:47.417Z,21.85
2019-05-19T11:48:47.243Z,21.85
2019-05-19T11:49:47.170Z,21.80
2019-05-19T11:50:47.205Z,21.80
2019-05-19T11:51:47.133Z,21.76
2019-05-19T11:52:47.060Z,21.77
2019-05-19T11:53:46.994Z,21.80
2019-05-19T11:54:46.815Z,21.93
2019-05-19T11:55:46.758Z,21.99
2019-05-19T11:56:46.779Z,22.14
2019-05-19T11:57:46.705Z,22.22
2019-05-19T11:58:46.535Z,22.38
2019-05-19T11:59:46.459Z,22.35
2019-05-19T12:00:46.493Z,22.39
2019-05-19T12:01:46.317Z,22.48
2019-05-19T12:02:46.362Z,22.60
2019-05-19T12:03:46.182Z,22.62
2019-05-19T12:04:46.220Z,22.80
2019-05-19T12:05:46.154Z,23.02
2019-05-19T12:06:45.984Z,23.17
2019-05-19T12:07:45.917Z,23.39
2019-05-19T12:08:45.961Z,23.59
2019-05-19T12:09:45.896Z,23.77
2019-05-19T12:10:45.733Z,23.92
2019-05-19T12:11:45.768Z,24.11
2019-05-19T12:12:45.711Z,24.23
2019-05-19T12:13:45.644Z,24.53
2019-05-19T12:14:45.504Z,24.68
2019-05-19T12:15:45.528Z,24.74
2019-05-19T12:16:45.358Z,24.96
2019-05-19T12:17:45.407Z,25.04
2019-05-19T12:18:45.243Z,25.23
2019-05-19T12:19:45.186Z,25.47
2019-05-19T12:20:45.130Z,25.59
2019-05-19T12:21:45.182Z,25.84
2019-05-19T12:22:45.113Z,25.98
2019-05-19T12:23:44.961Z,26.09
2019-05-19T12:24:44.997Z,26.28
2019-05-19T12:25:44.953Z,26.48
2019-05-19T12:26:44.785Z,26.81
2019-05-19T12:27:44.830Z,27.14
2019-05-19T12:28:44.792Z,27.42
2019-05-19T12:29:44.618Z,27.55
2019-05-19T12:30:44.578Z,27.90
2019-05-19T12:31:44.617Z,28.12
2019-05-19T12:32:44.555Z,28.41
2019-05-19T12:33:51.973Z,28.64
2019-05-19T12:34:44.445Z,28.88
2019-05-19T12:35:44.390Z,28.96
2019-05-19T12:36:44.231Z,29.19
2019-05-19T12:37:44.285Z,29.29
2019-05-19T12:38:44.241Z,29.36
2019-05-19T12:39:44.172Z,29.44
2019-05-19T12:40:44.121Z,29.36
2019-05-19T12:41:44.070Z,29.41
2019-05-19T12:42:44.016Z,29.53
2019-05-19T12:43:43.959Z,29.66
2019-05-19T12:44:43.822Z,29.81
2019-05-19T12:45:43.769Z,30.09
2019-05-19T12:46:43.805Z,30.30
2019-05-19T12:47:43.652Z,30.37
2019-05-19T12:48:43.700Z,30.73
2019-05-19T12:49:43.550Z,30.83
2019-05-19T12:50:43.589Z,31.09
2019-05-19T12:51:43.551Z,31.25
2019-05-19T12:52:43.381Z,31.49
2019-05-19T12:53:43.439Z,31.76
2019-05-19T12:54:43.388Z,31.87
2019-05-19T12:55:43.330Z,32.07
2019-05-19T12:56:43.173Z,32.03
2019-05-19T12:57:43.120Z,32.04
2019-05-19T12:58:43.081Z,32.16
2019-05-19T12:59:43.134Z,32.23
2019-05-19T13:00:43.069Z,32.38
2019-05-19T13:01:43.021Z,32.46
2019-05-19T13:02:42.966Z,32.31
2019-05-19T13:03:42.917Z,32.26
2019-05-19T13:04:42.862Z,32.38
2019-05-19T13:05:42.731Z,32.45
2019-05-19T13:06:42.690Z,32.55
2019-05-19T13:07:42.705Z,32.68
2019-05-19T13:08:42.653Z,32.86
2019-05-19T13:09:42.606Z,33.01
2019-05-19T13:10:42.556Z,33.05
2019-05-19T13:11:42.503Z,33.14
2019-05-19T13:12:42.457Z,33.17
2019-05-19T13:13:42.398Z,33.30